Time;durP1;ratioP1;P1;durP2;ratioP2;P2;SDS_P1;SDS_P2;PMS_P1;PMS_P2;Temp;Humidity;BMP_temperature;BMP_pressure;BME280_temperature;BME280_humidity;BME280_pressure;Samples;Min_cycle;Max_cycle;Signal;HPM_P1;HPM_P2
2022/08/06 00:02:02;;;;;;;6.80;2.70;;;;;;;13.07;65.20;102595.88;10443711;28;20131;-67
2022/08/06 00:07:02;;;;;;;9.07;3.40;;;;;;;12.97;65.02;102607.78;10425883;28;20025;-67
2022/08/06 00:12:03;;;;;;;5.78;2.72;;;;;;;12.95;65.41;102609.81;10460139;28;20346;-67
2022/08/06 00:17:04;;;;;;;3.15;1.95;;;;;;;12.87;65.54;102595.41;10443109;28;20028;-68
2022/08/06 00:22:04;;;;;;;5.82;2.50;;;;;;;12.79;65.65;102605.28;10459977;28;20052;-67
2022/08/06 00:27:05;;;;;;;8.27;2.67;;;;;;;12.80;66.44;102617.00;10459611;28;20037;-67
2022/08/06 00:32:05;;;;;;;8.23;3.15;;;;;;;12.76;66.28;102632.78;10459317;28;20037;-67
2022/08/06 00:37:05;;;;;;;5.55;3.28;;;;;;;12.77;66.74;102637.19;10459738;28;20091;-66
2022/08/06 00:42:06;;;;;;;4.50;2.88;;;;;;;12.76;66.65;102640.06;10458480;28;20118;-67
2022/08/06 00:47:06;;;;;;;12.10;3.83;;;;;;;12.76;66.65;102643.66;10457835;28;20028;-66
2022/08/06 00:52:07;;;;;;;9.25;3.25;;;;;;;12.80;67.08;102646.88;10458709;28;20087;-67
2022/08/06 00:57:07;;;;;;;6.78;3.25;;;;;;;12.77;67.12;102644.50;10440641;28;20095;-66
2022/08/06 01:02:07;;;;;;;4.57;2.80;;;;;;;12.83;67.78;102641.13;10459420;28;20025;-67
2022/08/06 01:07:08;;;;;;;11.27;4.45;;;;;;;12.71;67.08;102646.03;10458423;28;20375;-67
2022/08/06 01:12:08;;;;;;;7.00;2.63;;;;;;;12.67;67.99;102647.41;10458969;28;20033;-68
2022/08/06 01:17:32;;;;;;;5.25;3.30;;;;;;;12.76;68.25;102653.66;10458020;28;20029;-67
2022/08/06 01:22:38;;;;;;;6.60;3.28;;;;;;;12.72;68.37;102655.03;10457156;28;20099;-67
2022/08/06 01:28:03;;;;;;;5.13;3.60;;;;;;;12.73;68.42;102659.44;10457366;28;20071;-68
2022/08/06 01:33:09;;;;;;;5.38;2.28;;;;;;;12.67;68.63;102660.97;10457554;28;20112;-67
2022/08/06 01:38:30;;;;;;;3.75;2.88;;;;;;;12.60;69.48;102657.22;10439237;28;20059;-66
2022/08/06 01:43:31;;;;;;;12.10;2.78;;;;;;;12.64;69.66;102653.16;10439972;28;20039;-67
2022/08/06 01:48:32;;;;;;;2.72;2.53;;;;;;;12.66;69.66;102659.25;10422489;28;20197;-66
2022/08/06 01:53:37;;;;;;;10.43;3.85;;;;;;;12.57;69.39;102657.56;10422485;28;20116;-66
2022/08/06 01:58:39;;;;;;;2.90;2.67;;;;;;;12.42;69.51;102657.38;10439227;28;20036;-66
2022/08/06 02:03:43;;;;;;;7.80;3.00;;;;;;;12.49;69.96;102649.41;10441290;28;20488;-66
2022/08/06 02:08:43;;;;;;;6.78;2.22;;;;;;;12.40;69.93;102655.84;10447411;28;20464;-67
2022/08/06 02:13:44;;;;;;;2.47;2.15;;;;;;;12.35;70.51;102653.63;10446305;28;20021;-67
2022/08/06 02:18:45;;;;;;;2.22;2.05;;;;;;;12.28;70.45;102663.44;10446825;28;20496;-67
2022/08/06 02:23:45;;;;;;;8.65;2.72;;;;;;;12.22;70.70;102653.22;10430388;28;20048;-67
2022/08/06 02:28:46;;;;;;;8.90;2.85;;;;;;;12.42;70.94;102656.53;10430550;28;20048;-67
2022/08/06 02:33:46;;;;;;;5.68;2.63;;;;;;;12.34;70.45;102652.75;10429411;28;20036;-67
2022/08/06 02:38:53;;;;;;;9.27;2.42;;;;;;;12.22;71.17;102659.53;10463410;28;20037;-68
2022/08/06 02:44:02;;;;;;;4.20;2.00;;;;;;;12.12;71.29;102664.22;10446676;28;20065;-67
2022/08/06 02:49:11;;;;;;;9.15;2.63;;;;;;;12.08;71.33;102662.88;10413614;28;20021;-67
2022/08/06 02:54:19;;;;;;;3.20;1.85;;;;;;;12.14;71.71;102670.38;10445883;28;20453;-67
2022/08/06 02:59:27;;;;;;;2.35;2.25;;;;;;;12.10;71.83;102679.88;10429337;28;20033;-68
2022/08/06 03:04:28;;;;;;;6.35;1.90;;;;;;;12.16;71.61;102686.50;10430069;28;20049;-67
2022/08/06 03:09:29;;;;;;;3.20;1.90;;;;;;;12.07;71.87;102677.47;10444990;28;20403;-66
2022/08/06 03:14:29;;;;;;;4.60;2.05;;;;;;;12.08;71.87;102679.16;10444615;28;20029;-66
2022/08/06 03:19:30;;;;;;;5.72;2.40;;;;;;;12.20;72.31;102677.84;10429005;28;20029;-67
2022/08/06 03:24:30;;;;;;;8.73;1.98;;;;;;;12.14;72.14;102678.50;10444309;28;20107;-68
2022/08/06 03:29:30;;;;;;;10.60;3.30;;;;;;;12.07;72.65;102675.59;10444735;28;20057;-68
2022/08/06 03:34:31;;;;;;;2.42;2.33;;;;;;;12.07;72.60;102683.75;10444502;28;20029;-67
2022/08/06 03:39:31;;;;;;;2.05;1.95;;;;;;;11.97;72.62;102688.47;10427923;28;20381;-68
2022/08/06 03:44:32;;;;;;;6.43;2.05;;;;;;;12.05;73.50;102695.78;10462075;28;20069;-67
2022/08/06 03:49:35;;;;;;;1.77;1.67;;;;;;;12.07;73.85;102696.47;10443617;28;20461;-67
2022/08/06 03:54:46;;;;;;;6.25;3.15;;;;;;;12.07;73.56;102700.03;10442917;28;20048;-67
2022/08/06 03:59:47;;;;;;;5.15;2.22;;;;;;;11.97;73.16;102693.06;10444952;28;20103;-67
2022/08/06 04:04:47;;;;;;;6.32;3.40;;;;;;;11.90;73.71;102701.00;10460579;28;20099;-67
2022/08/06 04:09:47;;;;;;;5.07;2.92;;;;;;;11.85;73.74;102701.47;10426971;28;20037;-68
2022/08/06 04:14:48;;;;;;;4.00;3.03;;;;;;;11.82;73.75;102698.19;10442301;28;20032;-67
2022/08/06 04:19:48;;;;;;;4.00;3.53;;;;;;;11.89;73.94;102704.69;10426536;28;20025;-66
2022/08/06 04:24:49;;;;;;;3.03;2.53;;;;;;;11.88;74.21;102707.59;10424938;28;20140;-67
2022/08/06 04:29:49;;;;;;;8.30;3.28;;;;;;;11.92;74.27;102706.25;10425039;28;20036;-67
2022/08/06 04:34:50;;;;;;;3.72;2.97;;;;;;;12.05;74.34;102712.06;10424761;28;20101;-68
2022/08/06 04:39:50;;;;;;;2.17;2.05;;;;;;;12.07;75.31;102710.06;10440967;28;20101;-69
2022/08/06 04:44:51;;;;;;;3.40;3.17;;;;;;;12.07;74.68;102715.50;10441106;28;20033;-67
2022/08/06 04:49:51;;;;;;;2.42;2.10;;;;;;;12.09;74.98;102719.75;10459340;28;20056;-67
2022/08/06 04:54:51;;;;;;;5.10;2.38;;;;;;;12.23;75.14;102722.84;10424299;28;20032;-67
2022/08/06 04:59:52;;;;;;;2.35;2.17;;;;;;;12.31;75.29;102723.72;10458890;28;20452;-66
2022/08/06 05:04:55;;;;;;;3.70;3.15;;;;;;;12.45;75.42;102726.84;10458550;28;20103;-67
2022/08/06 05:09:56;;;;;;;4.70;3.28;;;;;;;12.62;75.18;102738.59;10457279;28;20037;-66
2022/08/06 05:15:15;;;;;;;7.78;2.88;;;;;;;12.71;75.72;102738.44;10457324;28;20041;-67
2022/08/06 05:20:18;;;;;;;3.10;2.70;;;;;;;13.49;75.75;102745.31;10440646;28;20076;-68
2022/08/06 05:25:19;;;;;;;3.05;2.47;;;;;;;14.62;76.24;102748.72;10438977;28;20052;-67
2022/08/06 05:30:20;;;;;;;2.50;2.30;;;;;;;15.64;76.44;102744.88;10440050;28;20044;-67
2022/08/06 05:35:20;;;;;;;4.88;2.30;;;;;;;16.52;76.15;102752.19;10457127;28;20125;-68
2022/08/06 05:40:21;;;;;;;5.68;2.67;;;;;;;17.22;75.74;102753.41;10456777;28;20040;-68
2022/08/06 05:45:21;;;;;;;5.65;2.67;;;;;;;17.87;75.60;102767.88;10439169;28;20037;-68
2022/08/06 05:50:22;;;;;;;11.32;2.55;;;;;;;18.42;75.03;102776.19;10455326;28;20032;-68
2022/08/06 05:55:44;;;;;;;1.73;1.63;;;;;;;19.10;74.41;102768.81;10422589;28;20476;-68
2022/08/06 06:00:45;;;;;;;1.85;1.42;;;;;;;19.65;73.44;102777.75;10439316;28;20067;-68
2022/08/06 06:05:45;;;;;;;5.80;1.42;;;;;;;20.23;72.67;102774.28;10439652;28;20397;-68
2022/08/06 06:10:46;;;;;;;2.38;1.40;;;;;;;20.68;71.73;102777.09;10422539;28;20033;-69
2022/08/06 06:16:09;;;;;;;1.50;1.33;;;;;;;21.10;70.41;102780.22;10422935;28;20048;-69
2022/08/06 06:21:12;;;;;;;2.30;1.48;;;;;;;21.68;68.80;102777.25;10427396;28;20037;-68
2022/08/06 06:26:37;;;;;;;6.07;1.20;;;;;;;21.81;67.87;102779.88;10457084;28;20075;-68
2022/08/06 06:31:53;;;;;;;1.02;0.93;;;;;;;21.97;66.59;102789.47;10438459;28;20110;-68
2022/08/06 06:36:59;;;;;;;0.65;0.65;;;;;;;22.15;66.11;102794.16;10455775;28;20028;-68
2022/08/06 06:42:19;;;;;;;2.47;1.20;;;;;;;22.54;65.69;102794.78;10437857;28;20040;-69
2022/08/06 06:47:43;;;;;;;5.00;1.60;;;;;;;22.90;64.30;102799.41;10422265;28;20033;-68
2022/08/06 06:52:46;;;;;;;0.88;0.88;;;;;;;22.90;58.77;102799.41;10445331;28;20029;-68
2022/08/06 06:57:53;;;;;;;1.75;1.02;;;;;;;23.07;59.37;102802.41;10430079;28;20036;-68
2022/08/06 07:02:53;;;;;;;0.90;0.90;;;;;;;22.91;54.69;102808.53;10444644;28;20041;-68
2022/08/06 07:07:54;;;;;;;0.95;0.63;;;;;;;23.36;54.72;102797.91;10428608;28;20485;-68
2022/08/06 07:12:54;;;;;;;2.38;1.40;;;;;;;23.70;53.94;102794.59;10445534;28;20025;-68
2022/08/06 07:17:54;;;;;;;2.00;1.52;;;;;;;24.08;53.73;102806.00;10428623;28;20033;-68
2022/08/06 07:22:56;;;;;;;0.85;0.85;;;;;;;25.00;54.30;102813.50;10444031;28;20049;-68
2022/08/06 07:27:57;;;;;;;1.17;1.08;;;;;;;25.41;53.88;102814.28;10444670;28;20048;-68
2022/08/06 07:32:57;;;;;;;0.70;0.70;;;;;;;26.05;50.14;102811.16;10443171;28;20029;-68
2022/08/06 07:38:03;;;;;;;2.88;0.90;;;;;;;26.00;45.39;102818.56;10443764;28;20033;-65
2022/08/06 07:43:17;;;;;;;0.60;0.60;;;;;;;24.18;50.79;102813.72;10443582;28;20163;-67
2022/08/06 07:48:21;;;;;;;2.67;1.30;;;;;;;22.78;51.41;102825.28;10444035;28;20068;-65
2022/08/06 07:53:21;;;;;;;0.70;0.70;;;;;;;24.66;50.28;102812.53;10460821;28;20380;-65
2022/08/06 07:58:22;;;;;;;1.65;1.55;;;;;;;26.14;48.23;102815.16;10442777;28;20116;-66
2022/08/06 08:08:41;;;;;;;2.38;1.55;;;;;;;27.19;44.98;102819.81;10459849;28;20045;-69
2022/08/06 08:13:41;;;;;;;1.95;1.00;;;;;;;27.68;45.85;102822.44;10425735;28;20025;-68
2022/08/06 08:18:42;;;;;;;1.02;1.02;;;;;;;27.61;38.83;102827.41;10425976;28;20087;-68
2022/08/06 08:23:43;;;;;;;0.70;0.70;;;;;;;27.01;40.75;102826.53;10460568;28;20057;-68
2022/08/06 08:28:43;;;;;;;13.25;1.08;;;;;;;27.97;42.55;102836.88;10442519;28;20445;-68
2022/08/06 08:33:44;;;;;;;0.85;0.85;;;;;;;28.55;41.96;102834.16;10426259;28;20036;-69
2022/08/06 08:38:45;;;;;;;0.95;0.95;;;;;;;28.88;43.49;102832.91;10462055;28;20029;-69
2022/08/06 08:43:48;;;;;;;0.70;0.70;;;;;;;28.90;42.15;102828.69;10442610;28;20041;-68
2022/08/06 08:48:49;;;;;;;0.98;0.98;;;;;;;28.74;39.35;102832.56;10440869;28;20033;-68
2022/08/06 08:53:53;;;;;;;3.85;1.40;;;;;;;28.94;39.78;102828.97;10440574;28;20110;-69
2022/08/06 08:58:53;;;;;;;1.02;1.02;;;;;;;29.88;41.21;102816.50;10458658;28;20501;-67
2022/08/06 09:03:53;;;;;;;1.02;0.90;;;;;;;30.54;40.60;102823.06;10440447;28;20152;-68
2022/08/06 09:08:55;;;;;;;1.38;1.27;;;;;;;29.31;38.94;102837.16;10440237;28;20032;-68
2022/08/06 09:13:55;;;;;;;1.60;1.20;;;;;;;29.73;39.03;102830.50;10439611;28;20047;-69
2022/08/06 09:18:55;;;;;;;1.52;1.08;;;;;;;25.79;42.20;102845.97;10440215;28;20029;-68
2022/08/06 09:23:56;;;;;;;1.15;1.08;;;;;;;27.05;41.93;102834.09;10422655;28;20440;-68
2022/08/06 09:28:56;;;;;;;0.93;0.90;;;;;;;26.72;42.36;102837.06;10440044;28;20119;-68
2022/08/06 09:33:59;;;;;;;0.68;0.68;;;;;;;24.77;44.99;102839.38;10457496;28;20037;-62
2022/08/06 09:38:59;;;;;;;1.08;0.98;;;;;;;27.25;41.67;102830.72;10422889;28;20075;-64
2022/08/06 09:44:00;;;;;;;0.60;0.60;;;;;;;28.52;39.94;102830.78;10456136;28;20389;-63
2022/08/06 09:49:01;;;;;;;1.33;1.08;;;;;;;27.62;32.97;102845.78;10422385;28;20033;-69
2022/08/06 09:54:02;;;;;;;0.70;0.70;;;;;;;28.12;36.55;102842.56;10439728;28;20135;-69
2022/08/06 09:59:05;;;;;;;0.90;0.90;;;;;;;29.26;36.80;102841.91;10438686;28;20036;-70
2022/08/06 10:04:05;;;;;;;1.40;1.30;;;;;;;30.43;34.60;102833.44;10438480;28;20032;-72
2022/08/06 10:09:10;;;;;;;0.85;0.70;;;;;;;30.12;34.38;102841.03;10456427;28;20100;-70
2022/08/06 10:14:30;;;;;;;1.05;1.00;;;;;;;30.34;35.72;102841.59;10438087;28;20464;-70
2022/08/06 10:19:31;;;;;;;2.85;1.02;;;;;;;30.99;35.21;102835.97;10456011;28;20103;-70
2022/08/06 10:24:32;;;;;;;1.10;0.70;;;;;;;30.31;36.29;102838.50;10440803;28;20045;-70
2022/08/06 10:29:34;;;;;;;3.05;1.20;;;;;;;29.90;36.47;102835.81;10446648;28;20041;-63
2022/08/06 11:23:06;;;;;;;;;;;;;;;;;;;;;
2022/08/06 14:01:34;;;;;;;1.25;1.20;;;;;;;28.36;33.58;102790.00;10208415;29;20130;-74
2022/08/06 14:13:23;;;;;;;2.58;1.48;;;;;;;28.21;34.61;102778.81;10197579;29;20047;-75
2022/08/06 14:50:13;;;;;;;1.65;1.55;;;;;;;26.84;36.53;102790.50;10251155;28;20055;-74
2022/08/06 15:01:36;;;;;;;1.52;1.38;;;;;;;26.15;35.47;102771.56;10207090;29;20043;-74
2022/08/06 15:07:15;;;;;;;2.63;1.90;;;;;;;25.95;36.15;102758.25;10262233;28;20047;-74
2022/08/06 15:13:10;;;;;;;1.58;1.48;;;;;;;25.77;36.78;102759.34;10226445;29;20086;-74
2022/08/06 15:25:03;;;;;;;2.22;2.03;;;;;;;24.94;36.65;102750.75;10380796;28;20038;-74
2022/08/06 15:54:52;;;;;;;1.90;1.80;;;;;;;24.03;37.33;102747.81;10209060;29;20105;-73
2022/08/06 16:06:32;;;;;;;1.38;1.20;;;;;;;23.42;38.58;102749.94;10338298;28;20030;-74
2022/08/06 16:24:03;;;;;;;1.10;1.10;;;;;;;21.86;39.85;102750.75;10133565;29;20060;-73
2022/08/06 17:00:03;;;;;;;3.42;1.02;;;;;;;20.30;42.39;102720.06;10111769;29;20511;-73
2022/08/06 17:18:14;;;;;;;;;;;;;;;;;;;;;
2022/08/06 17:42:19;;;;;;;1.98;1.88;;;;;;;19.37;43.95;102711.13;10290400;28;20039;-73
2022/08/06 17:48:38;;;;;;;;;;;;;;;19.27;43.61;102711.56;10289237;28;20039;-73
2022/08/06 18:24:45;;;;;;;1.52;1.42;;;;;;;18.52;47.55;102733.59;10077680;29;20416;-73
2022/08/06 18:54:46;;;;;;;;;;;;;;;;;;;;;
2022/08/06 19:06:01;;;;;;;5.03;2.42;;;;;;;17.68;48.94;102744.72;10257999;28;20035;-72
2022/08/06 19:23:45;;;;;;;;;;;;;;;17.34;50.09;102746.34;10190155;28;20560;-73
2022/08/06 19:29:13;;;;;;;8.13;2.47;;;;;;;17.15;50.18;102755.25;10215656;29;19969;-73
2022/08/06 19:34:36;;;;;;;1.65;1.55;;;;;;;17.06;50.65;102764.63;10201434;29;20094;-73
2022/08/06 20:04:44;;;;;;;;;;;;;;;;;;;;;
2022/08/06 20:16:19;;;;;;;1.38;1.30;;;;;;;16.38;51.31;102767.59;10330535;28;20066;-73
2022/08/06 20:22:15;;;;;;;11.90;3.05;;;;;;;16.27;51.54;102770.81;10291781;28;20124;-73
2022/08/06 20:28:06;;;;;;;5.70;2.33;;;;;;;16.20;51.60;102781.66;10170000;29;20565;-73
2022/08/06 21:22:32;;;;;;;7.57;1.95;;;;;;;15.21;52.94;102791.81;10057186;29;20041;-73
2022/08/06 21:51:44;;;;;;;2.78;2.47;;;;;;;14.92;54.67;102776.16;10210138;29;20491;-73
2022/08/06 23:47:03;;;;;;;10.02;3.03;;;;;;;13.71;60.30;102727.41;10138287;29;20052;-73
